createdAt,value
2023-02-18T00:00:36.167Z,28.58
2023-02-18T00:03:09.355Z,28.75
2023-02-18T00:05:56.171Z,31.23
2023-02-18T00:08:29.282Z,29.23
2023-02-18T00:11:17.182Z,28.73
2023-02-18T00:13:50.288Z,28.70
2023-02-18T00:16:38.181Z,31.55
2023-02-18T00:19:13.340Z,30.92
2023-02-18T00:22:00.200Z,29.02
2023-02-18T00:24:40.182Z,28.10
2023-02-18T00:27:34.179Z,29.77
2023-02-18T00:30:21.205Z,31.27
2023-02-18T00:33:01.188Z,30.05
2023-02-18T00:35:55.196Z,30.70
2023-02-18T00:38:42.189Z,34.00
2023-02-18T00:41:22.212Z,30.85
2023-02-18T00:44:16.205Z,31.60
2023-02-18T00:47:03.192Z,32.60
2023-02-18T00:49:36.336Z,34.13
2023-02-18T00:52:23.186Z,32.70
2023-02-18T00:54:56.315Z,32.75
2023-02-18T00:57:43.193Z,33.35
2023-02-18T01:00:24.285Z,32.67
2023-02-18T01:03:18.204Z,35.15
2023-02-18T01:06:05.393Z,30.95
2023-02-18T01:08:38.419Z,32.28
2023-02-18T01:11:25.217Z,33.08
2023-02-18T01:13:58.309Z,33.55
2023-02-18T01:16:45.226Z,32.25
2023-02-18T01:19:25.254Z,30.67
2023-02-18T01:22:13.229Z,31.30
2023-02-18T01:24:46.551Z,30.40
2023-02-18T01:27:33.218Z,31.33
2023-02-18T01:30:06.396Z,31.17
2023-02-18T01:32:53.243Z,32.17
2023-02-18T01:35:27.383Z,29.40
2023-02-18T01:38:15.342Z,26.63
2023-02-18T01:40:56.340Z,24.30
2023-02-18T01:43:44.227Z,24.83
2023-02-18T01:46:35.326Z,24.63
2023-02-18T01:49:34.177Z,24.40
2023-02-18T01:52:25.209Z,24.45
2023-02-18T01:55:02.323Z,23.02
2023-02-18T01:57:49.219Z,22.63
2023-02-18T02:00:25.333Z,24.33
2023-02-18T02:03:19.227Z,23.05
2023-02-18T02:06:06.580Z,22.27
2023-02-18T02:08:47.238Z,21.08
2023-02-18T02:11:40.210Z,23.52
2023-02-18T02:14:30.316Z,22.50
2023-02-18T02:17:17.218Z,20.40
2023-02-18T02:20:35.336Z,20.38
2023-02-18T02:23:57.248Z,20.30
2023-02-18T02:26:52.321Z,18.50
2023-02-18T02:30:16.297Z,17.05
2023-02-18T02:33:09.233Z,18.40
2023-02-18T02:36:17.241Z,19.58
2023-02-18T02:39:12.248Z,17.63
2023-02-18T02:42:16.237Z,16.65
2023-02-18T02:45:22.378Z,19.73
2023-02-18T02:48:33.229Z,18.85
2023-02-18T02:51:39.271Z,21.08
2023-02-18T02:54:32.300Z,22.83
2023-02-18T02:57:31.405Z,22.63
2023-02-18T03:00:20.265Z,21.15
2023-02-18T03:03:03.678Z,19.08
2023-02-18T03:06:21.248Z,21.63
2023-02-18T03:09:28.249Z,20.50
2023-02-18T03:12:34.251Z,20.52
2023-02-18T03:15:27.251Z,20.85
2023-02-18T03:18:13.366Z,19.70
2023-02-18T03:21:05.273Z,20.17
2023-02-18T03:23:53.277Z,21.77
2023-02-18T03:26:43.263Z,22.88
2023-02-18T03:29:26.268Z,21.67
2023-02-18T03:32:23.290Z,22.15
2023-02-18T03:35:19.267Z,21.60
2023-02-18T03:38:07.261Z,19.63
2023-02-18T03:40:54.277Z,18.27
2023-02-18T03:43:27.383Z,15.68
2023-02-18T03:46:14.300Z,17.23
2023-02-18T03:48:47.382Z,17.85
2023-02-18T03:51:34.302Z,18.08
2023-02-18T03:54:07.410Z,17.42
2023-02-18T03:56:54.320Z,17.73
2023-02-18T03:59:34.284Z,17.20
2023-02-18T04:02:28.282Z,14.95
2023-02-18T04:05:22.275Z,14.80
2023-02-18T04:08:16.253Z,14.60
2023-02-18T04:11:03.323Z,15.35
2023-02-18T04:13:36.362Z,16.02
2023-02-18T04:16:23.373Z,16.00
2023-02-18T04:18:56.370Z,14.75
2023-02-18T04:21:43.264Z,14.85
2023-02-18T04:24:16.393Z,14.30
2023-02-18T04:27:03.268Z,15.00
2023-02-18T04:29:36.392Z,16.00
2023-02-18T04:32:23.303Z,15.50
2023-02-18T04:35:03.273Z,15.55
2023-02-18T04:37:57.287Z,15.63
2023-02-18T04:40:44.273Z,15.75
2023-02-18T04:43:17.379Z,14.10
2023-02-18T04:46:04.325Z,16.10
2023-02-18T04:48:37.426Z,13.07
2023-02-18T04:51:24.290Z,14.20
2023-02-18T04:53:57.376Z,13.13
2023-02-18T04:56:44.297Z,19.52
2023-02-18T04:59:18.391Z,18.08
2023-02-18T05:02:05.320Z,15.65
2023-02-18T05:04:38.399Z,14.75
2023-02-18T05:07:25.287Z,13.93
2023-02-18T05:09:58.430Z,14.38
2023-02-18T05:12:45.296Z,14.18
2023-02-18T05:15:25.317Z,15.38
2023-02-18T05:18:12.293Z,14.15
2023-02-18T05:20:45.393Z,15.32
2023-02-18T05:23:32.317Z,15.18
2023-02-18T05:26:05.403Z,13.85
2023-02-18T05:28:52.333Z,13.65
2023-02-18T05:31:32.405Z,13.95
2023-02-18T05:34:19.321Z,14.05
2023-02-18T05:36:59.304Z,13.70
2023-02-18T05:39:47.295Z,14.43
2023-02-18T05:42:27.319Z,13.55
2023-02-18T05:45:21.261Z,12.95
2023-02-18T05:48:08.334Z,12.77
2023-02-18T05:50:41.682Z,13.02
2023-02-18T05:53:28.328Z,13.88
2023-02-18T05:56:01.421Z,12.70
2023-02-18T05:58:48.328Z,11.70
2023-02-18T06:01:28.345Z,12.05
2023-02-18T06:04:22.315Z,13.40
2023-02-18T06:07:16.373Z,11.70
2023-02-18T06:10:10.316Z,11.57
2023-02-18T06:12:57.341Z,11.90
2023-02-18T06:15:30.477Z,12.57
2023-02-18T06:18:17.309Z,11.98
2023-02-18T06:20:50.435Z,12.45
2023-02-18T06:23:37.332Z,13.48
2023-02-18T06:26:10.655Z,11.18
2023-02-18T06:28:57.336Z,12.55
2023-02-18T06:31:37.397Z,12.23
2023-02-18T06:34:31.327Z,12.70
2023-02-18T06:37:18.337Z,12.80
2023-02-18T06:39:51.451Z,11.82
2023-02-18T06:42:38.327Z,11.85
2023-02-18T06:45:11.560Z,13.15
2023-02-18T06:47:58.335Z,11.80
2023-02-18T06:50:31.425Z,13.18
2023-02-18T06:53:19.347Z,12.07
2023-02-18T06:55:59.330Z,12.23
2023-02-18T06:58:46.343Z,11.63
2023-02-18T07:01:26.345Z,11.10
2023-02-18T07:04:13.335Z,11.98
2023-02-18T07:06:53.346Z,11.07
2023-02-18T07:09:40.329Z,12.07
2023-02-18T07:12:20.360Z,11.18
2023-02-18T07:15:14.340Z,12.25
2023-02-18T07:18:01.369Z,11.35
2023-02-18T07:20:37.438Z,13.25
2023-02-18T07:23:24.336Z,11.25
2023-02-18T07:25:57.443Z,11.55
2023-02-18T07:28:44.346Z,10.82
2023-02-18T07:31:18.319Z,10.18
2023-02-18T07:34:05.351Z,11.57
2023-02-18T07:36:38.560Z,11.10
2023-02-18T07:39:27.366Z,12.18
2023-02-18T07:42:03.531Z,11.57
2023-02-18T07:44:50.381Z,11.25
2023-02-18T07:47:24.499Z,10.40
2023-02-18T07:50:12.381Z,9.63
2023-02-18T07:52:45.536Z,9.93
2023-02-18T07:55:52.341Z,10.57
2023-02-18T07:58:32.360Z,10.35
2023-02-18T08:01:28.361Z,11.20
2023-02-18T08:04:15.440Z,9.15
2023-02-18T08:06:51.626Z,12.15
2023-02-18T08:09:38.357Z,10.88
2023-02-18T08:12:11.556Z,10.73
2023-02-18T08:14:58.369Z,10.52
2023-02-18T08:17:31.471Z,11.07
2023-02-18T08:20:18.422Z,10.38
2023-02-18T08:22:51.458Z,11.52
2023-02-18T08:25:39.386Z,10.85
2023-02-18T08:28:15.450Z,12.63
2023-02-18T08:31:02.478Z,12.35
2023-02-18T08:33:43.386Z,12.27
2023-02-18T08:36:30.390Z,13.45
2023-02-18T08:39:04.551Z,11.45
2023-02-18T08:41:52.391Z,12.90
2023-02-18T08:44:25.487Z,14.87
2023-02-18T08:48:17.401Z,12.35
2023-02-18T08:50:05.516Z,13.10
2023-02-18T08:52:52.390Z,11.90
2023-02-18T08:55:26.952Z,12.43
2023-02-18T08:58:13.408Z,13.15
2023-02-18T09:00:47.539Z,13.20
2023-02-18T09:03:41.428Z,14.52
2023-02-18T09:06:35.397Z,13.25
2023-02-18T09:09:24.413Z,14.63
2023-02-18T09:12:04.392Z,13.52
2023-02-18T09:15:01.400Z,13.93
2023-02-18T09:17:55.401Z,14.13
2023-02-18T09:20:42.395Z,14.65
2023-02-18T09:23:16.396Z,12.48
2023-02-18T09:26:04.389Z,12.73
2023-02-18T09:28:37.540Z,12.50
2023-02-18T09:31:27.559Z,12.27
2023-02-18T09:34:06.540Z,11.15
2023-02-18T09:36:53.402Z,12.00
2023-02-18T09:39:26.835Z,13.65
2023-02-18T09:42:26.404Z,12.25
2023-02-18T09:45:11.395Z,12.10
2023-02-18T09:47:58.417Z,13.63
2023-02-18T09:50:47.411Z,15.38
2023-02-18T09:53:34.392Z,10.95
2023-02-18T09:56:08.535Z,12.35
2023-02-18T09:58:56.395Z,12.43
2023-02-18T10:01:42.599Z,12.57
2023-02-18T10:04:43.417Z,14.60
2023-02-18T10:07:48.418Z,13.57
2023-02-18T10:10:46.413Z,14.55
2023-02-18T10:13:27.533Z,13.88
2023-02-18T10:16:15.490Z,14.82
2023-02-18T10:18:51.634Z,12.57
2023-02-18T10:21:42.440Z,15.32
2023-02-18T10:24:24.519Z,14.15
2023-02-18T10:27:13.445Z,13.50
2023-02-18T10:29:46.548Z,13.43
2023-02-18T10:32:46.487Z,12.85
2023-02-18T10:35:36.432Z,15.25
2023-02-18T10:38:55.424Z,13.75
2023-02-18T10:41:55.431Z,12.32
2023-02-18T10:44:57.444Z,13.10
2023-02-18T10:48:01.569Z,13.73
2023-02-18T10:50:50.430Z,12.23
2023-02-18T10:53:41.845Z,12.68
2023-02-18T10:56:48.145Z,14.85
2023-02-18T10:59:30.540Z,13.32
2023-02-18T11:02:24.432Z,13.13
2023-02-18T11:04:57.746Z,15.02
2023-02-18T11:07:45.452Z,13.55
2023-02-18T11:10:29.525Z,14.07
2023-02-18T11:13:19.460Z,12.98
2023-02-18T11:16:12.591Z,13.98
2023-02-18T11:18:59.452Z,13.48
2023-02-18T11:21:49.456Z,12.98
2023-02-18T11:24:36.439Z,12.60
2023-02-18T11:27:15.533Z,13.40
2023-02-18T11:30:12.563Z,13.02
2023-02-18T11:32:45.562Z,12.70
2023-02-18T11:35:35.467Z,13.75
2023-02-18T11:38:12.567Z,13.15
2023-02-18T11:41:18.456Z,12.98
2023-02-18T11:44:04.449Z,10.40
2023-02-18T11:47:15.456Z,14.27
2023-02-18T11:50:31.450Z,13.63
2023-02-18T11:53:45.465Z,13.02
2023-02-18T11:56:35.452Z,13.35
2023-02-18T11:59:11.563Z,14.30
2023-02-18T12:02:24.470Z,12.45
2023-02-18T12:05:20.696Z,12.70
2023-02-18T12:08:14.467Z,12.90
2023-02-18T12:11:00.482Z,11.60
2023-02-18T12:14:09.466Z,11.85
2023-02-18T12:17:15.454Z,13.73
2023-02-18T12:20:09.480Z,13.48
2023-02-18T12:22:51.553Z,15.50
2023-02-18T12:25:41.489Z,15.60
2023-02-18T12:29:04.475Z,14.88
2023-02-18T12:32:07.531Z,15.23
2023-02-18T12:35:06.476Z,12.70
2023-02-18T12:38:02.603Z,15.20
2023-02-18T12:41:59.492Z,16.70
2023-02-18T12:44:51.487Z,14.40
2023-02-18T12:48:05.495Z,18.05
2023-02-18T12:51:12.497Z,18.08
2023-02-18T12:54:07.497Z,18.50
2023-02-18T12:56:57.499Z,18.00
2023-02-18T13:00:22.504Z,16.90
2023-02-18T13:03:53.518Z,15.85
2023-02-18T13:07:12.493Z,13.70
2023-02-18T13:10:35.525Z,14.15
2023-02-18T13:13:32.503Z,16.08
2023-02-18T13:16:18.576Z,17.02
2023-02-18T13:19:40.497Z,14.65
2023-02-18T13:22:30.536Z,16.20
2023-02-18T13:25:06.592Z,16.40
2023-02-18T13:28:17.517Z,17.33
2023-02-18T13:31:27.769Z,14.55
2023-02-18T13:34:46.487Z,15.10
2023-02-18T13:37:49.522Z,16.92
2023-02-18T13:40:37.505Z,17.50
2023-02-18T13:43:34.500Z,18.45
2023-02-18T13:46:26.506Z,17.60
2023-02-18T13:49:10.674Z,17.50
2023-02-18T13:52:00.514Z,16.77
2023-02-18T13:54:40.611Z,20.35
2023-02-18T13:57:32.509Z,14.60
2023-02-18T14:00:17.532Z,17.10
2023-02-18T14:03:08.631Z,16.15
2023-02-18T14:05:55.519Z,15.40
2023-02-18T14:08:43.518Z,13.15
2023-02-18T14:11:19.620Z,16.08
2023-02-18T14:14:06.525Z,15.95
2023-02-18T14:17:27.528Z,15.77
2023-02-18T14:20:21.520Z,15.00
2023-02-18T14:23:15.525Z,11.98
2023-02-18T14:26:19.528Z,13.50
2023-02-18T14:29:21.530Z,17.13
2023-02-18T14:32:01.883Z,13.35
2023-02-18T14:35:09.566Z,12.07
2023-02-18T14:38:18.553Z,11.05
2023-02-18T14:41:21.545Z,14.65
2023-02-18T14:44:56.529Z,11.98
2023-02-18T14:47:35.707Z,12.50
2023-02-18T14:50:26.533Z,13.20
2023-02-18T14:53:10.524Z,15.43
2023-02-18T14:56:06.543Z,13.82
2023-02-18T14:59:08.534Z,13.32
2023-02-18T15:02:02.543Z,14.63
2023-02-18T15:04:57.552Z,13.23
2023-02-18T15:07:44.579Z,14.40
2023-02-18T15:10:28.536Z,14.40
2023-02-18T15:13:30.601Z,12.75
2023-02-18T15:16:29.591Z,12.25
2023-02-18T15:19:16.546Z,12.23
2023-02-18T15:22:11.553Z,13.23
2023-02-18T15:25:01.563Z,13.90
2023-02-18T15:27:44.562Z,14.07
2023-02-18T15:30:45.544Z,13.82
2023-02-18T15:33:34.559Z,13.63
2023-02-18T15:36:20.554Z,12.05
2023-02-18T15:39:14.526Z,14.82
2023-02-18T15:42:09.557Z,13.43
2023-02-18T15:44:50.546Z,12.57
2023-02-18T15:47:38.559Z,12.38
2023-02-18T15:50:19.551Z,12.80
2023-02-18T15:53:20.582Z,13.18
2023-02-18T15:56:24.556Z,12.38
2023-02-18T15:59:03.703Z,12.75
2023-02-18T16:01:55.716Z,13.02
2023-02-18T16:04:31.698Z,12.25
2023-02-18T16:07:37.578Z,13.65
2023-02-18T16:10:23.574Z,22.95
2023-02-18T16:13:12.574Z,17.40
2023-02-18T16:15:54.587Z,15.52
2023-02-18T16:18:55.588Z,15.45
2023-02-18T16:21:44.574Z,16.55
2023-02-18T16:24:57.571Z,15.00
2023-02-18T16:28:19.571Z,16.17
2023-02-18T16:31:06.580Z,17.42
2023-02-18T16:33:39.753Z,17.13
2023-02-18T16:36:29.568Z,17.45
2023-02-18T16:39:04.548Z,17.65
2023-02-18T16:41:51.593Z,16.63
2023-02-18T16:44:24.773Z,17.40
2023-02-18T16:47:12.584Z,16.77
2023-02-18T16:49:47.712Z,17.30
2023-02-18T16:52:37.600Z,14.90
2023-02-18T16:55:30.583Z,15.65
2023-02-18T16:58:24.601Z,16.52
2023-02-18T17:01:11.638Z,12.80
2023-02-18T17:03:45.269Z,15.80
2023-02-18T17:06:32.586Z,21.02
2023-02-18T17:09:06.683Z,18.73
2023-02-18T17:11:55.602Z,18.67
2023-02-18T17:14:29.701Z,17.23
2023-02-18T17:17:20.615Z,16.35
2023-02-18T17:19:56.650Z,31.05
2023-02-18T17:22:43.601Z,28.73
2023-02-18T17:25:21.036Z,34.25
2023-02-18T17:28:07.579Z,30.60
2023-02-18T17:30:48.787Z,26.98
2023-02-18T17:33:35.610Z,34.50
2023-02-18T17:36:09.031Z,37.17
2023-02-18T17:38:55.609Z,21.88
2023-02-18T17:41:28.713Z,21.73
2023-02-18T17:44:28.613Z,23.42
2023-02-18T17:47:01.787Z,33.35
2023-02-18T17:49:49.742Z,30.20
2023-02-18T17:52:36.302Z,27.35
2023-02-18T17:55:26.631Z,27.95
2023-02-18T17:58:00.777Z,29.15
2023-02-18T18:00:54.637Z,25.48
2023-02-18T18:03:35.623Z,24.98
2023-02-18T18:06:31.594Z,22.13
2023-02-18T18:09:21.622Z,19.88
2023-02-18T18:12:01.617Z,21.95
2023-02-18T18:14:55.566Z,20.33
2023-02-18T18:17:42.626Z,22.90
2023-02-18T18:20:17.864Z,24.60
2023-02-18T18:23:05.632Z,30.20
2023-02-18T18:26:11.768Z,23.60
2023-02-18T18:28:59.644Z,21.73
2023-02-18T18:31:39.683Z,19.05
2023-02-18T18:34:36.694Z,18.27
2023-02-18T18:37:30.629Z,17.23
2023-02-18T18:40:17.640Z,19.38
2023-02-18T18:42:57.682Z,18.45
2023-02-18T18:45:51.674Z,18.80
2023-02-18T18:48:38.717Z,21.58
2023-02-18T18:51:15.918Z,19.00
2023-02-18T18:54:02.628Z,18.35
2023-02-18T18:56:37.865Z,17.50
2023-02-18T18:59:24.639Z,17.92
2023-02-18T19:01:58.780Z,22.20
2023-02-18T19:04:52.638Z,21.42
2023-02-18T19:07:46.697Z,20.48
2023-02-18T19:10:35.667Z,19.60
2023-02-18T19:13:15.817Z,20.77
2023-02-18T19:16:16.018Z,20.90
2023-02-18T19:18:55.653Z,22.20
2023-02-18T19:21:49.649Z,20.95
2023-02-18T19:24:36.634Z,22.13
2023-02-18T19:27:16.696Z,23.30
2023-02-18T19:30:10.716Z,24.00
2023-02-18T19:33:06.696Z,20.92
2023-02-18T19:36:00.692Z,23.13
2023-02-18T19:38:47.675Z,24.33
2023-02-18T19:41:29.668Z,28.20
2023-02-18T19:44:16.701Z,26.90
2023-02-18T19:46:56.698Z,24.13
2023-02-18T19:49:50.696Z,23.77
2023-02-18T19:52:37.647Z,25.00
2023-02-18T19:55:18.702Z,20.98
2023-02-18T19:58:05.675Z,21.05
2023-02-18T20:00:40.501Z,20.15
2023-02-18T20:03:27.668Z,23.42
2023-02-18T20:06:02.627Z,22.08
2023-02-18T20:08:49.719Z,22.15
2023-02-18T20:11:29.687Z,21.35
2023-02-18T20:14:23.723Z,21.38
2023-02-18T20:17:12.701Z,21.95
2023-02-18T20:19:45.852Z,19.52
2023-02-18T20:22:32.694Z,18.70
2023-02-18T20:25:13.668Z,20.67
2023-02-18T20:28:07.760Z,17.27
2023-02-18T20:30:54.805Z,19.75
2023-02-18T20:33:34.697Z,16.80
2023-02-18T20:36:28.695Z,15.80
2023-02-18T20:39:24.698Z,18.05
2023-02-18T20:42:16.568Z,19.27
2023-02-18T20:44:51.852Z,19.15
2023-02-18T20:47:39.728Z,18.13
2023-02-18T20:50:20.700Z,17.23
2023-02-18T20:53:14.951Z,16.95
2023-02-18T20:56:01.738Z,16.92
2023-02-18T20:58:34.856Z,17.83
2023-02-18T21:01:23.748Z,18.35
2023-02-18T21:03:56.804Z,19.02
2023-02-18T21:06:51.827Z,18.13
2023-02-18T21:09:45.723Z,16.90
2023-02-18T21:12:39.788Z,18.33
2023-02-18T21:15:34.699Z,20.95
2023-02-18T21:18:22.704Z,19.42
2023-02-18T21:20:55.818Z,20.02
2023-02-18T21:23:43.729Z,19.00
2023-02-18T21:26:20.906Z,19.88
2023-02-18T21:29:11.714Z,19.13
2023-02-18T21:31:47.926Z,18.52
2023-02-18T21:34:34.704Z,20.77
2023-02-18T21:37:08.993Z,18.85
2023-02-18T21:39:55.716Z,19.02
2023-02-18T21:42:28.833Z,20.00
2023-02-18T21:45:15.725Z,19.67
2023-02-18T21:47:50.837Z,19.65
2023-02-18T21:50:37.716Z,22.65
2023-02-18T21:53:10.984Z,17.65
2023-02-18T21:56:03.644Z,16.75
2023-02-18T21:58:36.850Z,18.63
2023-02-18T22:01:23.731Z,19.55
2023-02-18T22:04:03.772Z,20.83
2023-02-18T22:06:58.699Z,22.17
2023-02-18T22:09:48.270Z,19.50
2023-02-18T22:12:22.836Z,21.10
2023-02-18T22:15:10.702Z,20.65
2023-02-18T22:17:43.823Z,23.77
2023-02-18T22:20:30.717Z,19.70
2023-02-18T22:23:10.730Z,19.08
2023-02-18T22:25:58.721Z,20.02
2023-02-18T22:28:38.715Z,20.90
2023-02-18T22:31:28.515Z,21.77
2023-02-18T22:34:09.732Z,19.88
2023-02-18T22:37:03.781Z,21.38
2023-02-18T22:39:50.711Z,22.73
2023-02-18T22:42:23.837Z,21.40
2023-02-18T22:45:10.723Z,21.08
2023-02-18T22:47:50.742Z,19.88
2023-02-18T22:50:37.795Z,22.67
2023-02-18T22:53:10.833Z,23.90
2023-02-18T22:55:57.769Z,24.45
2023-02-18T22:58:30.867Z,26.23
2023-02-18T23:01:30.393Z,26.77
2023-02-18T23:04:06.009Z,26.40
2023-02-18T23:06:54.543Z,25.23
2023-02-18T23:09:31.861Z,21.52
2023-02-18T23:12:18.718Z,21.52
2023-02-18T23:14:51.918Z,22.38
2023-02-18T23:17:38.846Z,21.85
2023-02-18T23:20:19.801Z,22.80
2023-02-18T23:23:13.786Z,21.98
2023-02-18T23:26:07.846Z,21.30
2023-02-18T23:28:56.816Z,20.75
2023-02-18T23:31:39.839Z,21.77
2023-02-18T23:34:26.742Z,20.67
2023-02-18T23:36:59.913Z,21.38
2023-02-18T23:39:46.732Z,20.33
2023-02-18T23:42:19.896Z,22.63
2023-02-18T23:45:08.622Z,21.67
2023-02-18T23:47:48.809Z,21.73
2023-02-18T23:50:42.734Z,24.67
2023-02-18T23:53:33.892Z,26.52
2023-02-18T23:56:43.860Z,21.20
2023-02-18T23:59:37.812Z,22.23
